Time;durP1;ratioP1;P1;durP2;ratioP2;P2;SDS_P1;SDS_P2;PMS_P1;PMS_P2;Temp;Humidity;BMP_temperature;BMP_pressure;BME280_temperature;BME280_humidity;BME280_pressure;Samples;Min_cycle;Max_cycle;Signal;HPM_P1;HPM_P2
2022/02/04 00:28:53;;;;;;;45.08;20.48;;;;;;;4.55;100.00;99930.70;715989;1176;115524;-82
2022/02/04 00:43:57;;;;;;;42.30;18.67;;;;;;;4.48;100.00;99927.70;715701;1177;115093;-79
2022/02/04 01:29:55;;;;;;;59.93;23.85;;;;;;;4.45;100.00;99887.17;715796;1174;114172;-81
2022/02/04 01:44:57;;;;;;;45.07;20.33;;;;;;;4.49;100.00;99875.63;715622;1174;115292;-81
2022/02/04 02:00:01;;;;;;;47.80;21.20;;;;;;;4.35;100.00;99860.17;715802;1174;114132;-80
2022/02/04 02:15:18;;;;;;;54.25;21.85;;;;;;;4.24;100.00;99853.13;715825;1174;115064;-81
2022/02/04 03:01:05;;;;;;;40.73;17.80;;;;;;;4.27;100.00;99850.30;716128;1174;114107;-80
2022/02/04 03:16:16;;;;;;;39.60;16.98;;;;;;;4.25;100.00;99840.95;715969;1174;114084;-79
2022/02/04 03:31:19;;;;;;;35.93;15.58;;;;;;;4.40;100.00;99842.50;716169;1174;114182;-82
2022/02/04 03:46:21;;;;;;;31.85;14.45;;;;;;;4.37;100.00;99842.73;715920;1174;114960;-80
2022/02/04 04:01:23;;;;;;;29.78;14.50;;;;;;;4.38;100.00;99830.56;715759;1174;114113;-79
2022/02/04 04:16:26;;;;;;;29.70;14.23;;;;;;;4.52;100.00;99808.83;715818;1174;114755;-81
2022/02/04 04:31:28;;;;;;;30.75;14.45;;;;;;;4.61;100.00;99808.17;716046;1174;116006;-79
2022/02/04 05:32:17;;;;;;;46.93;20.60;;;;;;;4.78;100.00;99793.99;716095;1174;114157;-79
2022/02/04 05:47:20;;;;;;;43.25;17.45;;;;;;;4.83;100.00;99810.91;716279;1174;115143;-79
2022/02/04 06:02:49;;;;;;;69.28;32.25;;;;;;;4.76;100.00;99804.47;716320;1176;114860;-78
2022/02/04 06:33:09;;;;;;;41.57;18.43;;;;;;;4.89;100.00;99799.23;715619;1174;114063;-79
2022/02/04 06:48:12;;;;;;;98.78;58.45;;;;;;;4.81;100.00;99801.55;716529;1174;114997;-80
2022/02/04 07:03:14;;;;;;;59.53;28.87;;;;;;;4.86;100.00;99790.81;716385;1174;115219;-81
2022/02/04 07:33:46;;;;;;;46.63;20.45;;;;;;;5.25;100.00;99783.66;716496;1177;114101;-81
2022/02/04 07:48:48;;;;;;;61.93;34.15;;;;;;;5.35;100.00;99784.64;714506;1174;115148;-78
2022/02/04 08:03:56;;;;;;;48.20;21.18;;;;;;;5.45;100.00;99790.83;714497;1174;115548;-75
2022/02/04 08:34:37;;;;;;;61.23;25.45;;;;;;;5.64;100.00;99779.85;714775;1174;114851;-76
2022/02/04 09:05:07;;;;;;;63.30;27.13;;;;;;;5.87;100.00;99769.46;716227;1174;114099;-78
2022/02/04 09:20:23;;;;;;;101.63;39.43;;;;;;;5.93;100.00;99765.58;715942;1174;115044;-80
2022/02/04 09:35:25;;;;;;;65.90;34.47;;;;;;;6.01;100.00;99778.86;717717;1174;114980;-84
2022/02/04 09:50:30;;;;;;;42.80;20.93;;;;;;;5.97;100.00;99774.81;718259;1174;115217;-84
2022/02/04 10:21:05;;;;;;;52.27;21.77;;;;;;;6.31;100.00;99739.17;718192;1174;114206;-77
2022/02/04 10:36:10;;;;;;;50.50;20.38;;;;;;;6.32;100.00;99716.55;716985;1174;114221;-76
2022/02/04 12:07:44;;;;;;;71.90;28.67;;;;;;;6.72;100.00;99670.81;718392;1174;114374;-74
2022/02/04 12:22:54;;;;;;;57.53;22.47;;;;;;;6.77;100.00;99642.59;715153;1174;114902;-74
2022/02/04 12:37:57;;;;;;;63.25;25.08;;;;;;;6.85;100.00;99636.75;715199;1177;115545;-74
2022/02/04 12:52:59;;;;;;;64.15;25.15;;;;;;;7.09;100.00;99632.10;714958;1174;115338;-74
2022/02/04 13:23:31;;;;;;;92.27;33.63;;;;;;;7.12;100.00;99617.98;714949;1174;115663;-73
2022/02/04 13:39:50;;;;;;;93.93;35.37;;;;;;;7.15;100.00;99608.13;715001;1174;114154;-75
2022/02/04 13:54:26;;;;;;;77.30;30.73;;;;;;;7.27;100.00;99587.15;714915;1174;115035;-77
2022/02/04 14:09:38;;;;;;;111.55;43.20;;;;;;;7.34;100.00;99567.42;715044;1174;114044;-76
2022/02/04 14:24:41;;;;;;;102.13;40.63;;;;;;;7.31;100.00;99567.66;715123;1174;115098;-75
2022/02/04 15:10:31;;;;;;;98.28;39.90;;;;;;;7.26;100.00;99552.41;716923;1173;114728;-85
2022/02/04 15:25:33;;;;;;;86.13;35.90;;;;;;;7.26;100.00;99554.21;717608;1174;114747;-84
2022/02/04 15:40:36;;;;;;;96.28;38.88;;;;;;;7.24;100.00;99537.84;718099;1174;114040;-83
2022/02/04 16:11:13;;;;;;;75.00;33.73;;;;;;;7.18;100.00;99514.89;717732;1174;114501;-83
2022/02/04 16:26:47;;;;;;;80.18;38.93;;;;;;;7.16;100.00;99517.64;717117;1174;115182;-78
2022/02/04 16:42:03;;;;;;;80.40;37.37;;;;;;;7.09;100.00;99488.65;715494;1174;114105;-76
2022/02/04 16:57:05;;;;;;;67.43;32.93;;;;;;;7.09;100.00;99459.95;714939;1174;114964;-76
2022/02/04 17:12:11;;;;;;;71.70;30.05;;;;;;;7.03;100.00;99455.27;714441;1174;115197;-75
2022/02/04 17:27:14;;;;;;;67.63;28.33;;;;;;;6.99;100.00;99451.27;715339;1174;115483;-73
2022/02/04 17:42:22;;;;;;;57.48;26.73;;;;;;;6.99;100.00;99439.08;715323;1174;115407;-76
2022/02/04 17:58:21;;;;;;;;;;;;;;;7.08;100.00;99432.22;714680;1174;115608;-86
2022/02/04 18:12:48;;;;;;;70.53;30.40;;;;;;;7.14;100.00;99415.23;716940;1174;101368;-79
2022/02/04 18:27:50;;;;;;;64.78;30.13;;;;;;;7.19;100.00;99396.55;715152;1167;114190;-74
2022/02/04 18:58:17;;;;;;;56.67;28.43;;;;;;;7.19;100.00;99373.08;714789;1176;115875;-73
2022/02/04 19:13:24;;;;;;;56.60;27.40;;;;;;;7.14;100.00;99363.88;714873;1175;115179;-76
2022/02/04 19:28:28;;;;;;;56.98;27.65;;;;;;;7.18;100.00;99354.00;714732;1176;115227;-74
2022/02/04 19:43:33;;;;;;;45.33;23.13;;;;;;;7.26;100.00;99337.67;714641;1176;115074;-76
2022/02/04 20:29:00;;;;;;;44.58;21.85;;;;;;;7.37;100.00;99295.77;714865;1174;114677;-75
2022/02/04 20:44:03;;;;;;;49.25;23.90;;;;;;;7.32;100.00;99251.01;715437;1177;115061;-82
2022/02/04 20:59:05;;;;;;;45.60;20.88;;;;;;;7.23;100.00;99236.19;714819;1174;114577;-83
2022/02/04 21:14:16;;;;;;;37.95;19.55;;;;;;;7.23;100.00;99217.93;715152;1174;115042;-84
2022/02/04 21:29:19;;;;;;;38.98;17.43;;;;;;;7.31;100.00;99202.39;715213;1174;114168;-81
2022/02/04 21:44:21;;;;;;;32.75;16.38;;;;;;;7.34;100.00;99202.13;715493;1174;114940;-83
2022/02/04 21:59:24;;;;;;;32.57;18.30;;;;;;;7.26;100.00;99186.36;715118;1174;114163;-79
2022/02/04 22:14:50;;;;;;;29.08;15.93;;;;;;;7.29;100.00;99152.16;714922;1174;114060;-81
2022/02/04 22:45:20;;;;;;;28.40;14.88;;;;;;;7.30;100.00;99106.85;714423;1174;115519;-81
2022/02/04 23:00:35;;;;;;;26.30;14.63;;;;;;;7.23;100.00;99085.73;714690;1174;114473;-81
2022/02/04 23:15:38;;;;;;;23.83;13.27;;;;;;;7.38;100.00;99080.02;714871;1174;115117;-80
2022/02/04 23:31:09;;;;;;;26.03;13.78;;;;;;;7.32;100.00;99064.00;714891;1174;114872;-80
